Time;durP1;ratioP1;P1;durP2;ratioP2;P2;SDS_P1;SDS_P2;PMS_P1;PMS_P2;Temp;Humidity;BMP_temperature;BMP_pressure;BME280_temperature;BME280_humidity;BME280_pressure;Samples;Min_cycle;Max_cycle;Signal;HPM_P1;HPM_P2
2023/09/20 00:00:20;;;;;;;9.50;4.67;;;;;;;;;;5058427;28;20469;-82
2023/09/20 00:02:50;;;;;;;7.17;3.53;;;;;;;;;;5076380;28;20456;-82
2023/09/20 00:05:21;;;;;;;5.07;3.53;;;;;;;;;;5070033;28;20457;-82
2023/09/20 00:07:50;;;;;;;5.90;4.07;;;;;;;;;;5060076;28;20477;-82
2023/09/20 00:10:18;;;;;;;5.30;3.10;;;;;;;;;;5060087;28;20914;-82
2023/09/20 00:12:45;;;;;;;3.57;2.90;;;;;;;;;;5059987;28;20449;-82
2023/09/20 00:15:13;;;;;;;3.73;3.33;;;;;;;;;;5060067;28;20457;-82
2023/09/20 00:17:41;;;;;;;3.10;2.73;;;;;;;;;;5060200;28;20793;-83
2023/09/20 00:20:12;;;;;;;8.83;3.60;;;;;;;;;;5060241;28;20468;-82
2023/09/20 00:22:41;;;;;;;3.80;3.30;;;;;;;;;;5060001;28;20884;-82
2023/09/20 00:25:09;;;;;;;3.80;3.37;;;;;;;;;;5059748;28;20441;-82
2023/09/20 00:27:38;;;;;;;4.20;3.40;;;;;;;;;;5060374;28;20468;-82
2023/09/20 00:30:06;;;;;;;4.83;3.87;;;;;;;;;;5075346;28;20492;-82
2023/09/20 00:32:33;;;;;;;3.83;3.53;;;;;;;;;;5080329;28;20493;-82
2023/09/20 00:35:00;;;;;;;4.37;3.97;;;;;;;;;;5080586;28;20793;-81
2023/09/20 00:37:30;;;;;;;4.47;3.30;;;;;;;;;;5080162;28;20456;-81
2023/09/20 00:39:57;;;;;;;4.40;3.37;;;;;;;;;;5079798;28;20480;-82
2023/09/20 00:42:27;;;;;;;4.07;3.17;;;;;;;;;;5080537;28;20957;-82
2023/09/20 00:44:54;;;;;;;3.57;3.27;;;;;;;;;;5080361;28;20440;-82
2023/09/20 00:47:22;;;;;;;3.30;3.00;;;;;;;;;;5080085;28;20830;-81
2023/09/20 00:49:49;;;;;;;4.17;3.37;;;;;;;;;;5080154;28;20494;-82
2023/09/20 00:52:16;;;;;;;4.80;3.00;;;;;;;;;;5079386;28;20440;-82
2023/09/20 00:54:45;;;;;;;5.70;3.80;;;;;;;;;;5066087;28;20872;-82
2023/09/20 00:57:12;;;;;;;4.13;3.73;;;;;;;;;;5058832;28;20476;-82
2023/09/20 00:59:40;;;;;;;5.63;4.20;;;;;;;;;;5063256;28;20455;-82
2023/09/20 01:02:07;;;;;;;6.60;4.00;;;;;;;;;;5079788;28;20436;-81
2023/09/20 01:04:34;;;;;;;5.80;4.93;;;;;;;;;;5075445;28;20455;-82
2023/09/20 01:07:01;;;;;;;4.90;4.50;;;;;;;;;;5059378;28;20468;-82
2023/09/20 01:09:29;;;;;;;6.37;5.07;;;;;;;;;;5059397;28;20441;-82
2023/09/20 01:11:58;;;;;;;5.70;5.20;;;;;;;;;;5059134;28;21020;-82
2023/09/20 01:14:27;;;;;;;6.57;4.70;;;;;;;;;;5059685;28;20449;-82
2023/09/20 01:16:54;;;;;;;5.40;4.23;;;;;;;;;;5059209;28;20993;-82
2023/09/20 01:19:21;;;;;;;4.73;4.20;;;;;;;;;;5057165;28;20459;-82
2023/09/20 01:21:50;;;;;;;4.40;4.00;;;;;;;;;;5057427;28;20452;-82
2023/09/20 01:24:19;;;;;;;6.10;4.20;;;;;;;;;;5057191;28;20787;-82
2023/09/20 01:26:49;;;;;;;4.87;3.57;;;;;;;;;;5057924;28;20452;-82
2023/09/20 01:29:16;;;;;;;3.77;3.47;;;;;;;;;;5057975;28;20437;-81
2023/09/20 01:31:43;;;;;;;3.73;3.03;;;;;;;;;;5057613;28;20492;-82
2023/09/20 01:34:11;;;;;;;7.00;3.83;;;;;;;;;;5057127;28;20441;-82
2023/09/20 01:36:40;;;;;;;3.23;2.93;;;;;;;;;;5057885;28;20445;-81
2023/09/20 01:39:09;;;;;;;4.60;3.10;;;;;;;;;;5065736;28;20459;-82
2023/09/20 01:41:37;;;;;;;5.27;3.20;;;;;;;;;;5077867;28;20925;-81
2023/09/20 01:44:04;;;;;;;3.40;3.20;;;;;;;;;;5062315;28;20449;-82
2023/09/20 01:46:33;;;;;;;3.50;3.20;;;;;;;;;;5057869;28;20453;-82
2023/09/20 01:49:00;;;;;;;7.63;3.60;;;;;;;;;;5057874;28;20449;-82
2023/09/20 01:51:27;;;;;;;7.63;3.60;;;;;;;;;;5057986;28;20561;-82
2023/09/20 01:53:55;;;;;;;3.30;2.90;;;;;;;;;;5058560;28;20499;-82
2023/09/20 01:56:25;;;;;;;4.00;2.70;;;;;;;;;;5058467;28;20453;-81
2023/09/20 01:58:52;;;;;;;2.97;2.67;;;;;;;;;;5058423;28;20448;-82
2023/09/20 02:01:20;;;;;;;3.23;2.77;;;;;;;;;;5058820;28;20989;-82
2023/09/20 02:03:48;;;;;;;3.13;2.47;;;;;;;;;;5063554;28;20832;-82
2023/09/20 02:06:16;;;;;;;2.60;2.40;;;;;;;;;;5078223;28;20516;-82
2023/09/20 02:08:43;;;;;;;3.20;2.13;;;;;;;;;;5077049;28;20455;-82
2023/09/20 02:11:11;;;;;;;2.90;2.33;;;;;;;;;;5060281;28;20877;-81
2023/09/20 02:13:41;;;;;;;3.70;2.90;;;;;;;;;;5076960;28;20498;-82
2023/09/20 02:16:08;;;;;;;2.97;2.67;;;;;;;;;;5077023;28;20452;-81
2023/09/20 02:18:36;;;;;;;3.80;2.27;;;;;;;;;;5076998;28;20501;-80
2023/09/20 02:21:03;;;;;;;2.30;2.10;;;;;;;;;;5077251;28;20526;-81
2023/09/20 02:23:30;;;;;;;4.10;2.20;;;;;;;;;;5077258;28;20863;-81
2023/09/20 02:25:58;;;;;;;3.40;2.10;;;;;;;;;;5077267;28;21015;-81
2023/09/20 02:28:25;;;;;;;2.40;2.20;;;;;;;;;;5076714;28;20969;-82
2023/09/20 02:30:54;;;;;;;3.40;2.20;;;;;;;;;;5071103;28;20497;-81
2023/09/20 02:33:21;;;;;;;6.00;2.50;;;;;;;;;;5075678;28;20937;-81
2023/09/20 02:35:49;;;;;;;3.83;2.23;;;;;;;;;;5077467;28;20440;-81
2023/09/20 02:38:16;;;;;;;4.10;2.30;;;;;;;;;;5077421;28;20957;-81
2023/09/20 02:40:46;;;;;;;3.20;2.27;;;;;;;;;;5077349;28;20464;-82
2023/09/20 02:43:13;;;;;;;2.27;2.00;;;;;;;;;;5077169;28;20463;-82
2023/09/20 02:45:41;;;;;;;2.83;2.00;;;;;;;;;;5076834;28;20793;-82
2023/09/20 02:48:09;;;;;;;4.47;1.90;;;;;;;;;;5076654;28;20460;-82
2023/09/20 02:50:37;;;;;;;2.23;1.83;;;;;;;;;;5076734;28;20467;-82
2023/09/20 02:53:04;;;;;;;2.73;2.30;;;;;;;;;;5076087;28;20467;-82
2023/09/20 02:55:32;;;;;;;3.63;2.60;;;;;;;;;;5076825;28;20462;-82
2023/09/20 02:57:59;;;;;;;2.83;1.93;;;;;;;;;;5068709;28;20455;-82
2023/09/20 03:00:28;;;;;;;3.00;2.40;;;;;;;;;;5078518;28;20473;-82
2023/09/20 03:02:57;;;;;;;3.60;2.00;;;;;;;;;;5065507;28;20484;-82
2023/09/20 03:05:27;;;;;;;3.30;2.20;;;;;;;;;;5059171;28;20448;-82
2023/09/20 03:07:55;;;;;;;2.53;2.33;;;;;;;;;;5060371;28;20793;-81
2023/09/20 03:10:23;;;;;;;4.03;2.60;;;;;;;;;;5070046;28;20859;-82
2023/09/20 03:12:51;;;;;;;2.07;1.80;;;;;;;;;;5079529;28;20479;-82
2023/09/20 03:15:21;;;;;;;7.93;2.40;;;;;;;;;;5079644;28;20507;-82
2023/09/20 03:17:48;;;;;;;3.33;2.90;;;;;;;;;;5080029;28;20524;-82
2023/09/20 03:20:22;;;;;;;3.67;2.20;;;;;;;;;;5080727;28;20474;-82
2023/09/20 03:22:51;;;;;;;2.60;2.20;;;;;;;;;;5080518;28;20459;-82
2023/09/20 03:25:19;;;;;;;2.50;2.10;;;;;;;;;;5079742;28;21008;-82
2023/09/20 03:27:48;;;;;;;2.63;2.40;;;;;;;;;;5081104;28;20459;-82
2023/09/20 03:30:16;;;;;;;4.97;3.00;;;;;;;;;;5080593;28;20468;-82
2023/09/20 03:32:44;;;;;;;10.23;2.93;;;;;;;;;;5079743;28;20985;-82
2023/09/20 03:35:12;;;;;;;3.90;3.23;;;;;;;;;;5077709;28;20475;-81
2023/09/20 03:37:40;;;;;;;4.40;3.03;;;;;;;;;;5077897;28;20581;-81
2023/09/20 03:40:10;;;;;;;10.13;3.17;;;;;;;;;;5080447;28;20562;-81
2023/09/20 03:42:38;;;;;;;3.70;3.40;;;;;;;;;;5081935;28;20446;-81
2023/09/20 03:45:06;;;;;;;6.10;2.87;;;;;;;;;;5073434;28;20479;-82
2023/09/20 03:47:33;;;;;;;2.63;2.40;;;;;;;;;;5082254;28;20443;-81
2023/09/20 03:50:01;;;;;;;14.47;3.20;;;;;;;;;;5081593;28;20464;-81
2023/09/20 03:52:28;;;;;;;6.40;2.97;;;;;;;;;;5081021;28;20479;-81
2023/09/20 03:54:57;;;;;;;3.80;2.67;;;;;;;;;;5073128;28;20823;-81
2023/09/20 03:57:26;;;;;;;3.30;2.90;;;;;;;;;;5060921;28;20487;-82
2023/09/20 03:59:54;;;;;;;2.80;2.50;;;;;;;;;;5078589;28;20471;-82
2023/09/20 04:02:23;;;;;;;4.40;2.90;;;;;;;;;;5069039;28;20445;-81
2023/09/20 04:04:51;;;;;;;3.87;2.83;;;;;;;;;;5059651;28;20460;-81
2023/09/20 04:07:18;;;;;;;2.87;2.57;;;;;;;;;;5058716;28;20448;-81
2023/09/20 04:09:45;;;;;;;5.10;2.60;;;;;;;;;;5063524;28;20471;-80
2023/09/20 04:12:13;;;;;;;4.47;3.37;;;;;;;;;;5078933;28;21122;-81
2023/09/20 04:14:42;;;;;;;3.60;2.67;;;;;;;;;;5079711;28;20493;-81
2023/09/20 04:17:09;;;;;;;3.90;3.03;;;;;;;;;;5079032;28;20517;-81
2023/09/20 04:19:39;;;;;;;4.90;3.00;;;;;;;;;;5066722;28;20441;-81
2023/09/20 04:22:06;;;;;;;7.37;3.27;;;;;;;;;;5061667;28;20449;-80
2023/09/20 04:24:33;;;;;;;4.57;2.70;;;;;;;;;;5080055;28;20938;-81
2023/09/20 04:27:02;;;;;;;3.70;3.40;;;;;;;;;;5072459;28;20543;-81
2023/09/20 04:29:29;;;;;;;3.10;2.80;;;;;;;;;;5067384;28;20514;-81
2023/09/20 04:31:58;;;;;;;3.70;3.30;;;;;;;;;;5059636;28;20846;-81
2023/09/20 04:34:25;;;;;;;3.70;3.30;;;;;;;;;;5059021;28;20457;-81
2023/09/20 04:36:53;;;;;;;3.70;3.30;;;;;;;;;;5058893;28;20449;-80
2023/09/20 04:39:21;;;;;;;5.60;3.20;;;;;;;;;;5058771;28;20449;-81
2023/09/20 04:41:48;;;;;;;11.43;3.37;;;;;;;;;;5058670;28;20492;-81
2023/09/20 04:44:15;;;;;;;6.17;3.03;;;;;;;;;;5059597;28;20441;-81
2023/09/20 04:46:43;;;;;;;3.73;2.73;;;;;;;;;;5064278;28;20455;-81
2023/09/20 04:49:11;;;;;;;3.87;2.70;;;;;;;;;;5078619;28;20814;-81
2023/09/20 04:51:39;;;;;;;4.00;3.10;;;;;;;;;;5078599;28;20494;-80
2023/09/20 04:54:07;;;;;;;3.50;2.87;;;;;;;;;;5078670;28;20506;-81
2023/09/20 04:56:36;;;;;;;4.30;3.27;;;;;;;;;;5058219;28;20483;-81
2023/09/20 04:59:04;;;;;;;3.70;3.17;;;;;;;;;;5058419;28;20847;-81
2023/09/20 05:01:31;;;;;;;4.30;3.07;;;;;;;;;;5057889;28;20465;-82
2023/09/20 05:03:58;;;;;;;4.30;2.90;;;;;;;;;;5056580;28;20459;-81
2023/09/20 05:06:27;;;;;;;3.23;2.77;;;;;;;;;;5056403;28;20457;-81
2023/09/20 05:08:54;;;;;;;5.40;3.30;;;;;;;;;;5059276;28;20886;-81
2023/09/20 05:11:22;;;;;;;8.70;3.53;;;;;;;;;;5057344;28;20476;-81
2023/09/20 05:13:49;;;;;;;7.20;3.20;;;;;;;;;;5057945;28;20457;-81
2023/09/20 05:16:16;;;;;;;3.20;2.90;;;;;;;;;;5056964;28;20467;-79
2023/09/20 05:18:43;;;;;;;4.17;3.77;;;;;;;;;;5057822;28;20447;-81
2023/09/20 05:21:11;;;;;;;5.30;3.70;;;;;;;;;;5058072;28;20491;-81
2023/09/20 05:23:41;;;;;;;3.27;2.97;;;;;;;;;;5058278;28;20457;-81
2023/09/20 05:26:08;;;;;;;3.93;3.40;;;;;;;;;;5074698;28;20551;-81
2023/09/20 05:28:36;;;;;;;9.70;3.80;;;;;;;;;;5077578;28;20938;-80
2023/09/20 05:31:05;;;;;;;4.63;3.67;;;;;;;;;;5076969;28;20771;-82
2023/09/20 05:33:32;;;;;;;7.63;3.80;;;;;;;;;;5077632;28;20574;-81
2023/09/20 05:35:59;;;;;;;6.00;3.70;;;;;;;;;;5077095;28;20443;-81
2023/09/20 05:38:26;;;;;;;3.40;3.03;;;;;;;;;;5066599;28;20934;-80
2023/09/20 05:40:55;;;;;;;9.73;3.57;;;;;;;;;;5062697;28;20464;-81
2023/09/20 05:43:22;;;;;;;3.27;2.87;;;;;;;;;;5077061;28;20451;-79
2023/09/20 05:45:49;;;;;;;5.20;2.50;;;;;;;;;;5075931;28;20439;-81
2023/09/20 05:48:16;;;;;;;7.93;2.90;;;;;;;;;;5077248;28;20787;-82
2023/09/20 05:50:43;;;;;;;3.27;2.97;;;;;;;;;;5078070;28;20487;-81
2023/09/20 05:53:11;;;;;;;4.33;3.30;;;;;;;;;;5076190;28;20488;-81
2023/09/20 05:55:39;;;;;;;3.10;2.80;;;;;;;;;;5063618;28;20522;-81
2023/09/20 05:58:08;;;;;;;2.50;2.30;;;;;;;;;;5059092;28;20532;-83
2023/09/20 06:00:35;;;;;;;3.07;2.30;;;;;;;;;;5057715;28;20559;-81
2023/09/20 06:03:04;;;;;;;3.20;2.13;;;;;;;;;;5056386;28;20452;-81
2023/09/20 06:05:33;;;;;;;2.60;2.40;;;;;;;;;;5057069;28;20449;-83
2023/09/20 06:08:00;;;;;;;3.80;2.43;;;;;;;;;;5062909;28;20462;-82
2023/09/20 06:10:27;;;;;;;3.70;2.80;;;;;;;;;;5076191;28;20474;-82
2023/09/20 06:12:54;;;;;;;5.60;2.50;;;;;;;;;;5076718;28;20490;-81
2023/09/20 06:15:23;;;;;;;3.27;2.20;;;;;;;;;;5076559;28;20493;-83
2023/09/20 06:17:51;;;;;;;2.67;2.10;;;;;;;;;;5062473;28;20966;-83
2023/09/20 06:20:20;;;;;;;2.77;1.90;;;;;;;;;;5073889;28;20483;-81
2023/09/20 06:22:48;;;;;;;3.83;2.20;;;;;;;;;;5071213;28;20563;-81
2023/09/20 06:25:17;;;;;;;4.00;2.00;;;;;;;;;;5055905;28;20780;-82
2023/09/20 06:27:44;;;;;;;2.53;2.00;;;;;;;;;;5056371;28;20872;-82
2023/09/20 06:30:14;;;;;;;3.20;2.07;;;;;;;;;;5072575;28;20477;-82
2023/09/20 06:32:44;;;;;;;3.03;1.80;;;;;;;;;;5075014;28;20514;-82
2023/09/20 06:35:12;;;;;;;3.43;1.63;;;;;;;;;;5075530;28;20504;-82
2023/09/20 06:37:39;;;;;;;3.57;1.70;;;;;;;;;;5076260;28;20510;-82
2023/09/20 06:40:16;;;;;;;2.17;1.50;;;;;;;;;;5073928;28;20495;-84
2023/09/20 06:42:43;;;;;;;2.50;1.63;;;;;;;;;;5074112;28;20518;-84
2023/09/20 06:45:12;;;;;;;2.30;1.50;;;;;;;;;;5066034;28;20790;-84
2023/09/20 06:47:40;;;;;;;2.13;1.77;;;;;;;;;;5054113;28;20951;-84
2023/09/20 06:50:09;;;;;;;2.20;1.70;;;;;;;;;;5054322;28;20518;-82
2023/09/20 06:52:36;;;;;;;5.13;1.53;;;;;;;;;;5054109;28;20537;-83
2023/09/20 06:55:04;;;;;;;3.90;1.90;;;;;;;;;;5054180;28;20457;-84
2023/09/20 06:57:31;;;;;;;7.77;2.07;;;;;;;;;;5054127;28;20445;-82
2023/09/20 06:59:58;;;;;;;1.70;1.50;;;;;;;;;;5053967;28;20464;-84
2023/09/20 07:02:26;;;;;;;2.20;1.70;;;;;;;;;;5074286;28;20845;-84
2023/09/20 07:04:55;;;;;;;3.60;1.93;;;;;;;;;;5073769;28;20804;-84
2023/09/20 07:07:25;;;;;;;1.90;1.73;;;;;;;;;;5073825;28;20448;-84
2023/09/20 07:09:52;;;;;;;2.27;1.60;;;;;;;;;;5073379;28;20486;-84
2023/09/20 07:12:19;;;;;;;2.77;1.50;;;;;;;;;;5074000;28;20578;-84
2023/09/20 07:14:47;;;;;;;19.30;2.00;;;;;;;;;;5080591;28;20447;-84
2023/09/20 07:17:15;;;;;;;6.10;1.70;;;;;;;;;;5080506;28;20440;-84
2023/09/20 07:19:47;;;;;;;2.53;1.70;;;;;;;;;;5081090;28;20460;-84
2023/09/20 07:22:14;;;;;;;3.37;1.53;;;;;;;;;;5080466;28;20463;-84
2023/09/20 07:24:45;;;;;;;1.97;1.77;;;;;;;;;;5079976;28;20895;-84
2023/09/20 07:27:13;;;;;;;6.37;2.00;;;;;;;;;;5080861;28;20462;-84
2023/09/20 07:29:41;;;;;;;1.90;1.70;;;;;;;;;;5080828;28;20486;-82
2023/09/20 07:32:11;;;;;;;2.90;1.50;;;;;;;;;;5081094;28;20459;-84
2023/09/20 07:34:38;;;;;;;2.13;1.83;;;;;;;;;;5081269;28;20821;-84
2023/09/20 07:37:07;;;;;;;4.53;1.60;;;;;;;;;;5081337;28;20449;-84
2023/09/20 07:39:34;;;;;;;2.70;2.07;;;;;;;;;;5080935;28;20435;-84
2023/09/20 07:42:05;;;;;;;2.73;1.57;;;;;;;;;;5080753;28;20933;-84
2023/09/20 07:44:35;;;;;;;2.97;1.70;;;;;;;;;;5080581;28;20444;-84
2023/09/20 07:47:03;;;;;;;2.40;2.20;;;;;;;;;;5080962;28;20450;-84
2023/09/20 07:49:32;;;;;;;2.40;1.60;;;;;;;;;;5082917;28;20953;-84
2023/09/20 07:52:00;;;;;;;3.20;2.03;;;;;;;;;;5069539;28;20456;-85
2023/09/20 07:54:27;;;;;;;3.73;1.83;;;;;;;;;;5063013;28;20463;-84
2023/09/20 07:56:54;;;;;;;4.40;1.77;;;;;;;;;;5062703;28;20451;-85
2023/09/20 07:59:26;;;;;;;2.70;1.97;;;;;;;;;;5061719;28;20516;-84
2023/09/20 08:01:53;;;;;;;3.40;2.20;;;;;;;;;;5061269;28;20472;-84
2023/09/20 08:04:21;;;;;;;3.03;1.80;;;;;;;;;;5060708;28;20433;-85
2023/09/20 08:06:49;;;;;;;3.73;2.10;;;;;;;;;;5060831;28;20958;-84
2023/09/20 08:09:16;;;;;;;4.93;1.57;;;;;;;;;;5061258;28;20509;-84
2023/09/20 08:11:44;;;;;;;2.40;1.80;;;;;;;;;;5060186;28;20484;-84
2023/09/20 08:14:11;;;;;;;2.20;1.50;;;;;;;;;;5059316;28;20484;-85
2023/09/20 08:16:42;;;;;;;2.37;1.70;;;;;;;;;;5060014;28;20469;-84
2023/09/20 08:19:20;;;;;;;4.03;1.67;;;;;;;;;;5060022;28;20448;-85
2023/09/20 08:21:48;;;;;;;5.03;3.00;;;;;;;;;;5060432;28;20468;-85
2023/09/20 09:00:19;;;;;;;2.80;1.93;;;;;;;;;;5057254;28;20551;-84
2023/09/20 09:02:47;;;;;;;3.67;2.47;;;;;;;;;;5056807;28;20460;-84
2023/09/20 09:05:16;;;;;;;4.20;2.00;;;;;;;;;;5058471;28;20788;-84
2023/09/20 09:07:43;;;;;;;2.80;1.93;;;;;;;;;;5057720;28;20437;-84
2023/09/20 09:10:13;;;;;;;6.67;2.00;;;;;;;;;;5057875;28;21014;-84
2023/09/20 09:12:43;;;;;;;2.60;2.40;;;;;;;;;;5057320;28;20990;-84
2023/09/20 09:15:11;;;;;;;4.33;2.20;;;;;;;;;;5055938;28;20441;-83
2023/09/20 09:17:42;;;;;;;6.67;2.37;;;;;;;;;;5056543;28;20453;-84
2023/09/20 09:20:10;;;;;;;3.27;2.20;;;;;;;;;;5055814;28;20465;-83
2023/09/20 09:22:40;;;;;;;4.90;3.03;;;;;;;;;;5055962;28;20465;-84
2023/09/20 09:25:14;;;;;;;3.37;2.40;;;;;;;;;;5056155;28;20437;-84
2023/09/20 09:27:42;;;;;;;2.77;1.93;;;;;;;;;;5056004;28;20982;-84
2023/09/20 09:30:11;;;;;;;3.77;1.90;;;;;;;;;;5055783;28;20465;-84
2023/09/20 09:32:38;;;;;;;3.40;2.00;;;;;;;;;;5056109;28;20511;-84
2023/09/20 09:35:08;;;;;;;5.70;2.40;;;;;;;;;;5059489;28;20552;-83
2023/09/20 09:37:36;;;;;;;2.57;1.97;;;;;;;;;;5059484;28;20453;-85
2023/09/20 09:40:05;;;;;;;3.37;2.20;;;;;;;;;;5060100;28;20483;-84
2023/09/20 09:42:32;;;;;;;5.07;2.97;;;;;;;;;;5060867;28;20444;-85
2023/09/20 09:45:01;;;;;;;5.03;3.13;;;;;;;;;;5060926;28;20449;-85
2023/09/20 09:47:30;;;;;;;2.50;1.80;;;;;;;;;;5061515;28;20567;-84
2023/09/20 09:49:59;;;;;;;4.23;2.43;;;;;;;;;;5059989;28;20571;-84
2023/09/20 09:52:28;;;;;;;2.93;2.30;;;;;;;;;;5058685;28;20874;-84
2023/09/20 09:54:56;;;;;;;4.40;2.13;;;;;;;;;;5056936;28;20451;-84
2023/09/20 09:57:25;;;;;;;4.30;2.50;;;;;;;;;;5055689;28;20456;-84
2023/09/20 09:59:54;;;;;;;3.13;2.10;;;;;;;;;;5055305;28;20956;-83
2023/09/20 10:02:22;;;;;;;2.30;1.83;;;;;;;;;;5057031;28;20471;-84
2023/09/20 10:04:51;;;;;;;3.10;1.50;;;;;;;;;;5055944;28;20548;-83
2023/09/20 10:07:19;;;;;;;4.73;2.33;;;;;;;;;;5056951;28;20919;-85
2023/09/20 10:09:49;;;;;;;3.50;2.00;;;;;;;;;;5058450;28;21048;-85
2023/09/20 10:12:17;;;;;;;2.20;1.87;;;;;;;;;;5055913;28;20863;-85
2023/09/20 10:14:46;;;;;;;2.77;2.23;;;;;;;;;;5055213;28;20488;-85
2023/09/20 10:17:15;;;;;;;4.33;1.90;;;;;;;;;;5055225;28;20893;-84
2023/09/20 10:19:43;;;;;;;3.30;1.90;;;;;;;;;;5055098;28;20457;-83
2023/09/20 10:22:13;;;;;;;9.90;2.40;;;;;;;;;;5055403;28;20536;-84
2023/09/20 10:24:45;;;;;;;4.77;2.30;;;;;;;;;;5055473;28;20445;-84
2023/09/20 10:27:16;;;;;;;3.30;1.60;;;;;;;;;;5055004;28;20854;-83
2023/09/20 10:29:50;;;;;;;2.10;1.90;;;;;;;;;;5055978;28;20560;-84
2023/09/20 10:32:23;;;;;;;3.47;1.80;;;;;;;;;;5055080;28;20437;-84
2023/09/20 10:35:05;;;;;;;3.73;1.93;;;;;;;;;;5055392;28;20862;-84
2023/09/20 10:37:33;;;;;;;4.60;2.23;;;;;;;;;;5055045;28;20510;-83
2023/09/20 10:40:00;;;;;;;2.93;1.70;;;;;;;;;;5055658;28;20465;-84
2023/09/20 10:42:28;;;;;;;2.50;1.73;;;;;;;;;;5055687;28;20465;-83
2023/09/20 10:45:00;;;;;;;4.60;1.77;;;;;;;;;;5055535;28;20429;-84
2023/09/20 10:47:30;;;;;;;9.23;1.70;;;;;;;;;;5055389;28;20586;-84
2023/09/20 10:49:59;;;;;;;6.70;2.10;;;;;;;;;;5055365;28;21047;-84
2023/09/20 10:52:53;;;;;;;2.67;1.67;;;;;;;;;;5054810;28;20456;-84
2023/09/20 10:55:35;;;;;;;2.90;1.50;;;;;;;;;;5008375;28;20463;-84
2023/09/20 10:58:02;;;;;;;1.70;1.50;;;;;;;;;;5054347;28;20440;-83
2023/09/20 11:00:34;;;;;;;2.10;1.60;;;;;;;;;;5074141;28;20486;-83
2023/09/20 11:03:05;;;;;;;2.63;1.80;;;;;;;;;;5075575;28;20436;-84
2023/09/20 11:05:32;;;;;;;2.37;1.70;;;;;;;;;;5076180;28;20527;-84
2023/09/20 11:08:06;;;;;;;4.10;1.87;;;;;;;;;;5075403;28;20525;-84
2023/09/20 11:10:34;;;;;;;3.00;1.40;;;;;;;;;;5074726;28;20536;-83
2023/09/20 11:13:02;;;;;;;3.20;1.53;;;;;;;;;;5074674;28;20466;-84
2023/09/20 11:15:29;;;;;;;2.10;1.57;;;;;;;;;;5075971;28;20451;-84
2023/09/20 11:17:57;;;;;;;5.33;1.53;;;;;;;;;;5075714;28;20926;-84
2023/09/20 11:20:27;;;;;;;1.97;1.60;;;;;;;;;;5075347;28;20515;-83
2023/09/20 11:22:54;;;;;;;5.33;1.67;;;;;;;;;;5075662;28;20440;-83
2023/09/20 11:25:21;;;;;;;3.30;1.67;;;;;;;;;;5075555;28;20460;-83
2023/09/20 11:27:49;;;;;;;2.40;1.50;;;;;;;;;;5076105;28;20547;-84
2023/09/20 11:30:17;;;;;;;3.00;1.60;;;;;;;;;;5076225;28;20475;-84
2023/09/20 11:32:45;;;;;;;1.97;1.77;;;;;;;;;;5077510;28;20926;-86
2023/09/20 11:35:13;;;;;;;2.80;1.80;;;;;;;;;;5076573;28;20517;-83
2023/09/20 11:37:42;;;;;;;3.03;1.60;;;;;;;;;;5076318;28;20452;-83
2023/09/20 11:40:09;;;;;;;2.43;1.60;;;;;;;;;;5076707;28;20500;-83
2023/09/20 11:42:39;;;;;;;2.40;1.60;;;;;;;;;;5076806;28;20795;-83
2023/09/20 11:45:08;;;;;;;1.70;1.47;;;;;;;;;;5076661;28;20440;-85
2023/09/20 11:47:41;;;;;;;3.07;2.10;;;;;;;;;;5076299;28;20888;-83
2023/09/20 11:50:12;;;;;;;2.43;1.63;;;;;;;;;;5075146;28;20475;-83
2023/09/20 11:52:43;;;;;;;3.27;1.70;;;;;;;;;;5074257;28;20921;-83
2023/09/20 11:55:13;;;;;;;3.63;1.90;;;;;;;;;;5075648;28;20515;-84
2023/09/20 11:57:42;;;;;;;5.60;1.90;;;;;;;;;;5075553;28;20462;-84
2023/09/20 12:00:16;;;;;;;3.13;1.80;;;;;;;;;;5077411;28;20657;-84
2023/09/20 12:02:43;;;;;;;2.40;2.10;;;;;;;;;;5080002;28;20435;-83
2023/09/20 12:05:11;;;;;;;2.53;1.97;;;;;;;;;;5080058;28;20470;-83
2023/09/20 12:07:38;;;;;;;1.90;1.63;;;;;;;;;;5081035;28;20436;-82
2023/09/20 12:10:07;;;;;;;4.27;1.87;;;;;;;;;;5079889;28;20464;-83
2023/09/20 12:12:35;;;;;;;2.63;1.80;;;;;;;;;;5079142;28;20459;-83
2023/09/20 12:15:06;;;;;;;3.00;1.43;;;;;;;;;;5078467;28;20496;-84
2023/09/20 12:17:35;;;;;;;2.03;1.70;;;;;;;;;;5078894;28;20442;-83
2023/09/20 12:20:04;;;;;;;3.50;1.60;;;;;;;;;;5079053;28;20503;-83
2023/09/20 12:22:31;;;;;;;3.47;2.07;;;;;;;;;;5079263;28;20451;-83
2023/09/20 12:24:58;;;;;;;3.30;1.80;;;;;;;;;;5079088;28;20546;-83
2023/09/20 12:27:27;;;;;;;1.60;1.40;;;;;;;;;;5078817;28;20805;-84
2023/09/20 12:29:54;;;;;;;1.90;1.70;;;;;;;;;;5079786;28;20482;-83
2023/09/20 12:32:21;;;;;;;4.37;1.70;;;;;;;;;;5079420;28;20455;-83
2023/09/20 12:34:50;;;;;;;2.03;1.67;;;;;;;;;;5079867;28;20490;-83
2023/09/20 12:37:19;;;;;;;3.13;1.70;;;;;;;;;;5079050;28;20455;-83
2023/09/20 12:39:47;;;;;;;5.87;1.60;;;;;;;;;;5079895;28;20471;-83
2023/09/20 12:42:14;;;;;;;3.87;1.77;;;;;;;;;;5078942;28;20440;-82
2023/09/20 12:44:43;;;;;;;3.43;1.90;;;;;;;;;;5078418;28;20523;-83
2023/09/20 12:47:10;;;;;;;3.13;2.03;;;;;;;;;;5078295;28;20462;-83
2023/09/20 12:49:37;;;;;;;2.70;1.87;;;;;;;;;;5078940;28;20520;-83
2023/09/20 12:52:14;;;;;;;3.83;2.40;;;;;;;;;;5077948;28;20451;-83
2023/09/20 12:54:41;;;;;;;4.10;2.17;;;;;;;;;;5078011;28;20513;-82
2023/09/20 12:57:09;;;;;;;2.93;2.70;;;;;;;;;;5078221;28;20455;-82
2023/09/20 12:59:36;;;;;;;2.93;2.40;;;;;;;;;;5077657;28;20460;-83
2023/09/20 13:02:09;;;;;;;4.33;1.90;;;;;;;;;;5077919;28;20451;-84
2023/09/20 13:04:36;;;;;;;3.17;1.97;;;;;;;;;;5078256;28;20479;-84
2023/09/20 13:07:04;;;;;;;2.70;2.50;;;;;;;;;;5077744;28;20468;-84
2023/09/20 13:09:32;;;;;;;3.47;2.17;;;;;;;;;;5076997;28;20474;-83
2023/09/20 13:11:59;;;;;;;3.07;2.47;;;;;;;;;;5078329;28;20916;-83
2023/09/20 13:14:27;;;;;;;5.30;2.40;;;;;;;;;;5077049;28;20567;-83
2023/09/20 13:16:54;;;;;;;4.00;2.27;;;;;;;;;;5077996;28;20543;-84
2023/09/20 13:19:23;;;;;;;3.97;2.70;;;;;;;;;;5077300;28;20456;-83
2023/09/20 13:21:51;;;;;;;2.40;2.20;;;;;;;;;;5077916;28;20501;-83
2023/09/20 13:24:19;;;;;;;2.77;2.10;;;;;;;;;;5077824;28;20456;-84
2023/09/20 13:26:46;;;;;;;2.30;2.10;;;;;;;;;;5077556;28;20460;-83
2023/09/20 13:29:14;;;;;;;2.80;2.20;;;;;;;;;;5078515;28;20491;-84
2023/09/20 13:31:42;;;;;;;2.20;2.00;;;;;;;;;;5077529;28;20482;-84
2023/09/20 13:34:14;;;;;;;3.90;2.13;;;;;;;;;;5077820;28;20936;-83
2023/09/20 13:36:44;;;;;;;5.27;2.10;;;;;;;;;;5077514;28;20493;-83
2023/09/20 13:39:12;;;;;;;3.80;2.30;;;;;;;;;;5077364;28;20583;-83
2023/09/20 13:41:39;;;;;;;5.13;2.80;;;;;;;;;;5077980;28;20852;-84
2023/09/20 13:44:08;;;;;;;3.70;2.60;;;;;;;;;;5077809;28;20448;-82
2023/09/20 13:46:38;;;;;;;2.77;2.03;;;;;;;;;;5077770;28;20459;-82
2023/09/20 13:49:06;;;;;;;7.53;2.50;;;;;;;;;;5077711;28;20992;-82
2023/09/20 13:51:33;;;;;;;2.90;2.10;;;;;;;;;;5078664;28;20570;-83
2023/09/20 13:54:06;;;;;;;3.23;2.33;;;;;;;;;;5078601;28;20466;-83
2023/09/20 13:56:37;;;;;;;5.90;2.60;;;;;;;;;;5077661;28;20483;-82
2023/09/20 13:59:05;;;;;;;4.27;2.70;;;;;;;;;;5077859;28;20463;-82
2023/09/20 14:01:33;;;;;;;2.60;2.20;;;;;;;;;;5077359;28;20475;-83
2023/09/20 14:04:00;;;;;;;3.40;1.93;;;;;;;;;;5078382;28;20495;-82
2023/09/20 14:06:27;;;;;;;7.37;2.47;;;;;;;;;;5078048;28;20451;-82
2023/09/20 14:08:54;;;;;;;4.60;2.60;;;;;;;;;;5076987;28;20558;-83
2023/09/20 14:11:23;;;;;;;4.83;1.93;;;;;;;;;;5077456;28;20471;-83
2023/09/20 14:13:50;;;;;;;2.30;2.10;;;;;;;;;;5078975;28;20824;-81
2023/09/20 14:16:18;;;;;;;2.87;2.13;;;;;;;;;;5077766;28;20455;-83
2023/09/20 14:18:45;;;;;;;2.33;2.10;;;;;;;;;;5077584;28;20531;-83
2023/09/20 14:21:14;;;;;;;5.33;1.80;;;;;;;;;;5076838;28;20511;-83
2023/09/20 14:23:41;;;;;;;3.37;2.10;;;;;;;;;;5075850;28;20543;-83
2023/09/20 14:26:11;;;;;;;3.30;2.00;;;;;;;;;;5075428;28;20440;-83
2023/09/20 14:28:41;;;;;;;3.47;2.53;;;;;;;;;;5075327;28;20423;-83
2023/09/20 14:31:14;;;;;;;3.60;2.23;;;;;;;;;;5074680;28;20529;-82
2023/09/20 14:33:41;;;;;;;4.97;1.83;;;;;;;;;;5075286;28;20436;-82
2023/09/20 14:36:11;;;;;;;2.13;1.93;;;;;;;;;;5075519;28;20573;-82
2023/09/20 14:38:38;;;;;;;2.77;1.67;;;;;;;;;;5075477;28;20534;-83
2023/09/20 14:41:06;;;;;;;2.60;1.90;;;;;;;;;;5075668;28;20986;-82
2023/09/20 14:43:34;;;;;;;4.63;1.60;;;;;;;;;;5074601;28;20930;-82
2023/09/20 14:46:05;;;;;;;2.87;1.93;;;;;;;;;;5075435;28;20467;-81
2023/09/20 14:48:32;;;;;;;2.97;2.00;;;;;;;;;;5075152;28;20526;-82
2023/09/20 14:51:01;;;;;;;4.50;2.13;;;;;;;;;;5075308;28;20463;-82
2023/09/20 14:53:28;;;;;;;2.73;2.23;;;;;;;;;;5075257;28;20460;-82
2023/09/20 14:55:56;;;;;;;5.20;2.00;;;;;;;;;;5074663;28;20586;-82
2023/09/20 14:58:24;;;;;;;4.13;2.10;;;;;;;;;;5075666;28;20458;-82
2023/09/20 15:00:51;;;;;;;3.93;2.30;;;;;;;;;;5076433;28;20521;-82
2023/09/20 15:03:20;;;;;;;6.93;2.10;;;;;;;;;;5076376;28;20785;-82
2023/09/20 15:05:47;;;;;;;3.13;2.00;;;;;;;;;;5076784;28;20565;-83
2023/09/20 15:08:14;;;;;;;3.97;2.00;;;;;;;;;;5076498;28;20459;-82
2023/09/20 15:10:43;;;;;;;2.40;1.80;;;;;;;;;;5076703;28;20476;-83
2023/09/20 15:13:10;;;;;;;2.33;2.03;;;;;;;;;;5076274;28;20460;-82
2023/09/20 15:15:37;;;;;;;3.13;1.60;;;;;;;;;;5076814;28;20837;-82
2023/09/20 15:18:05;;;;;;;2.47;1.83;;;;;;;;;;5076425;28;20471;-82
2023/09/20 15:20:34;;;;;;;5.40;2.10;;;;;;;;;;5075928;28;20906;-81
2023/09/20 15:23:01;;;;;;;2.33;1.80;;;;;;;;;;5076691;28;20491;-81
2023/09/20 15:25:29;;;;;;;3.77;1.93;;;;;;;;;;5076026;28;20489;-82